Time;durP1;ratioP1;P1;durP2;ratioP2;P2;SDS_P1;SDS_P2;PMS_P1;PMS_P2;Temp;Humidity;BMP_temperature;BMP_pressure;BME280_temperature;BME280_humidity;BME280_pressure;Samples;Min_cycle;Max_cycle;Signal;HPM_P1;HPM_P2
2023/09/09 00:00:18;;;;;;;657.38;610.28;;;;;;;19.41;100.00;101586.97;10458842;28;20441;-67
2023/09/09 00:05:19;;;;;;;641.60;595.53;;;;;;;19.32;99.95;101577.44;10440767;28;20160;-67
2023/09/09 00:10:19;;;;;;;644.40;598.10;;;;;;;19.24;100.00;101578.63;10457889;28;20079;-67
2023/09/09 00:15:19;;;;;;;570.00;529.63;;;;;;;19.19;100.00;101592.22;10458764;28;20381;-67
2023/09/09 00:20:36;;;;;;;568.50;528.25;;;;;;;19.12;100.00;101587.94;10458161;28;20033;-67
2023/09/09 00:25:37;;;;;;;532.28;494.98;;;;;;;19.04;100.00;101589.94;10442017;28;20122;-67
2023/09/09 00:30:39;;;;;;;531.00;492.45;;;;;;;18.98;100.00;101579.91;10457523;28;20068;-67
2023/09/09 00:35:39;;;;;;;566.40;526.25;;;;;;;18.95;100.00;101585.03;10458745;28;20480;-67
2023/09/09 00:40:42;;;;;;;523.55;486.20;;;;;;;18.86;100.00;101576.34;10457340;28;20063;-66
2023/09/09 00:45:43;;;;;;;503.40;467.42;;;;;;;18.80;100.00;101575.38;10457201;28;20033;-67
2023/09/09 00:50:43;;;;;;;494.25;460.08;;;;;;;18.73;100.00;101569.16;10456330;28;20119;-67
2023/09/09 00:55:43;;;;;;;489.15;454.83;;;;;;;18.63;100.00;101571.59;10456104;28;20025;-67
2023/09/09 01:00:44;;;;;;;461.90;429.90;;;;;;;18.63;100.00;101568.84;10438986;28;20052;-67
2023/09/09 01:05:45;;;;;;;459.75;428.08;;;;;;;18.60;100.00;101569.31;10456190;28;20070;-66
2023/09/09 01:10:45;;;;;;;544.70;505.40;;;;;;;18.61;100.00;101576.50;10437849;28;20112;-67
2023/09/09 01:15:45;;;;;;;706.58;655.40;;;;;;;18.59;100.00;101570.38;10453966;28;20116;-67
2023/09/09 01:21:07;;;;;;;590.15;548.75;;;;;;;18.55;100.00;101567.28;10454978;28;20033;-67
2023/09/09 01:26:07;;;;;;;420.00;388.98;;;;;;;18.56;100.00;101559.88;10455492;28;20070;-66
2023/09/09 01:31:08;;;;;;;324.45;297.73;;;;;;;18.54;100.00;101560.13;10456412;28;20032;-67
2023/09/09 01:36:09;;;;;;;229.32;206.70;;;;;;;18.52;100.00;101559.53;10456375;28;20137;-67
2023/09/09 01:41:09;;;;;;;202.63;155.77;;;;;;;18.48;100.00;101560.25;10457141;28;20063;-68
2023/09/09 01:46:10;;;;;;;199.45;171.27;;;;;;;18.45;100.00;101550.56;10455644;28;20500;-67
2023/09/09 01:51:10;;;;;;;200.45;155.25;;;;;;;18.43;100.00;101560.91;10469904;28;20067;-67
2023/09/09 01:56:10;;;;;;;172.52;144.57;;;;;;;18.46;100.00;101562.38;10453230;28;20051;-67
2023/09/09 02:01:11;;;;;;;177.18;146.20;;;;;;;18.42;100.00;101559.25;10453227;28;20079;-67
2023/09/09 02:06:11;;;;;;;197.30;157.23;;;;;;;18.42;100.00;101561.16;10453877;28;20396;-67
2023/09/09 02:11:12;;;;;;;194.45;156.18;;;;;;;18.42;100.00;101577.63;10454057;28;20531;-67
2023/09/09 02:16:12;;;;;;;190.85;159.45;;;;;;;18.36;100.00;101565.69;10435931;28;20082;-67
2023/09/09 02:21:13;;;;;;;205.45;181.15;;;;;;;18.33;100.00;101564.22;10452517;28;20040;-67
2023/09/09 02:26:13;;;;;;;207.40;186.20;;;;;;;18.32;100.00;101564.47;10455359;28;20040;-67
2023/09/09 02:31:14;;;;;;;213.40;192.35;;;;;;;18.26;100.00;101554.44;10453654;28;20056;-68
2023/09/09 02:36:14;;;;;;;233.23;209.25;;;;;;;18.24;100.00;101551.91;10453290;28;20068;-67
2023/09/09 02:41:14;;;;;;;277.27;254.75;;;;;;;18.24;100.00;101556.56;10452330;28;20033;-67
2023/09/09 02:46:15;;;;;;;295.67;272.77;;;;;;;18.23;100.00;101550.25;10453755;28;20475;-66
2023/09/09 02:51:15;;;;;;;331.67;306.80;;;;;;;18.20;100.00;101550.72;10453692;28;20361;-67
2023/09/09 02:56:16;;;;;;;333.08;307.23;;;;;;;18.16;100.00;101546.78;10452555;28;20029;-67
2023/09/09 03:01:16;;;;;;;349.67;323.00;;;;;;;18.10;100.00;101542.22;10454001;28;20106;-67
2023/09/09 03:06:17;;;;;;;405.45;376.52;;;;;;;18.05;100.00;101547.53;10453591;28;20037;-67
2023/09/09 03:11:17;;;;;;;408.42;378.77;;;;;;;18.02;100.00;101548.00;10453919;28;20392;-67
2023/09/09 03:16:17;;;;;;;509.52;473.38;;;;;;;17.99;100.00;101548.47;10452582;28;20423;-67
2023/09/09 03:21:18;;;;;;;476.48;442.45;;;;;;;17.98;100.00;101550.38;10457942;28;20072;-67
2023/09/09 03:26:22;;;;;;;488.85;453.90;;;;;;;17.96;100.00;101543.44;10460306;28;20079;-67
2023/09/09 03:31:23;;;;;;;490.27;455.67;;;;;;;17.95;100.00;101550.00;10461247;28;20041;-66
2023/09/09 03:36:23;;;;;;;493.05;457.75;;;;;;;17.92;100.00;101551.31;10459540;28;20490;-67
2023/09/09 03:41:23;;;;;;;484.70;449.80;;;;;;;17.97;100.00;101551.47;10459651;28;20043;-67
2023/09/09 03:46:24;;;;;;;444.85;412.35;;;;;;;18.03;100.00;101550.53;10460210;28;20492;-67
2023/09/09 03:51:24;;;;;;;496.33;460.20;;;;;;;18.01;100.00;101560.88;10460176;28;20087;-67
2023/09/09 03:56:25;;;;;;;497.30;463.20;;;;;;;17.92;100.00;101551.31;10458451;28;20033;-68
2023/09/09 04:01:25;;;;;;;526.17;487.83;;;;;;;17.85;100.00;101558.78;10458785;28;20036;-68
2023/09/09 04:06:27;;;;;;;509.58;474.15;;;;;;;17.82;100.00;101562.81;10459402;28;20481;-67
2023/09/09 04:11:27;;;;;;;516.30;481.08;;;;;;;17.79;100.00;101562.44;10457940;28;20116;-67
2023/09/09 04:16:28;;;;;;;530.92;493.63;;;;;;;17.78;100.00;101563.50;10457006;28;20488;-68
2023/09/09 04:21:29;;;;;;;512.72;477.23;;;;;;;17.76;100.00;101562.84;10459141;28;20033;-68
2023/09/09 04:26:29;;;;;;;529.38;492.55;;;;;;;17.77;100.00;101561.81;10457161;28;20147;-67
2023/09/09 04:31:30;;;;;;;524.58;488.42;;;;;;;17.75;100.00;101569.41;10458397;28;20052;-67
2023/09/09 04:36:30;;;;;;;520.95;483.33;;;;;;;17.77;100.00;101568.16;10457173;28;20040;-68
2023/09/09 04:41:30;;;;;;;537.42;497.90;;;;;;;17.75;100.00;101561.19;10457725;28;20123;-68
2023/09/09 04:46:31;;;;;;;501.58;466.88;;;;;;;17.73;100.00;101571.53;10457446;28;20417;-68
2023/09/09 04:51:31;;;;;;;523.08;485.90;;;;;;;17.73;100.00;101577.84;10472467;28;20091;-68
2023/09/09 04:56:32;;;;;;;544.72;505.10;;;;;;;17.75;100.00;101574.88;10455829;28;20115;-67
2023/09/09 05:01:32;;;;;;;557.80;518.38;;;;;;;17.77;100.00;101579.09;10455200;28;20040;-68
2023/09/09 05:06:33;;;;;;;587.47;545.42;;;;;;;17.76;100.00;101591.06;10455104;28;20036;-68
2023/09/09 05:11:33;;;;;;;598.38;556.05;;;;;;;17.77;100.00;101587.31;10455207;28;20040;-67
2023/09/09 05:16:36;;;;;;;603.45;560.45;;;;;;;17.80;100.00;101583.28;10455788;28;20104;-67
2023/09/09 05:21:37;;;;;;;587.08;544.22;;;;;;;17.85;100.00;101588.91;10455671;28;20086;-67
2023/09/09 05:26:37;;;;;;;563.45;523.75;;;;;;;17.94;100.00;101578.50;10455101;28;20029;-67
2023/09/09 05:31:38;;;;;;;583.42;543.00;;;;;;;17.98;100.00;101588.75;10456715;28;20083;-68
2023/09/09 05:36:38;;;;;;;610.75;566.90;;;;;;;18.09;100.00;101589.84;10457236;28;20040;-68
2023/09/09 05:41:39;;;;;;;601.15;557.88;;;;;;;18.20;100.00;101591.84;10454292;28;20033;-67
2023/09/09 05:46:39;;;;;;;663.08;615.15;;;;;;;18.31;100.00;101587.47;10459023;28;20033;-68
2023/09/09 05:51:39;;;;;;;706.38;655.63;;;;;;;18.44;100.00;101586.44;10454776;28;20049;-68
2023/09/09 05:56:40;;;;;;;704.35;652.95;;;;;;;18.58;100.00;101585.19;10455200;28;20124;-67
2023/09/09 06:01:40;;;;;;;705.70;654.88;;;;;;;18.86;100.00;101589.19;10454262;28;20465;-67
2023/09/09 06:06:42;;;;;;;779.88;723.60;;;;;;;19.65;100.00;101584.22;10453479;28;20037;-68
2023/09/09 06:11:42;;;;;;;822.25;763.80;;;;;;;20.37;100.00;101592.88;10453503;28;20029;-67
2023/09/09 06:16:43;;;;;;;880.55;816.15;;;;;;;21.10;100.00;101602.16;10453743;28;20028;-67
2023/09/09 06:21:43;;;;;;;884.97;821.15;;;;;;;21.53;100.00;101597.03;10452867;28;20450;-68
2023/09/09 06:26:43;;;;;;;904.95;839.22;;;;;;;21.92;100.00;101597.00;10455329;28;20090;-68
2023/09/09 06:31:44;;;;;;;911.15;845.55;;;;;;;22.78;100.00;101604.59;10437821;28;20104;-67
2023/09/09 06:36:44;;;;;;;901.17;836.67;;;;;;;23.47;100.00;101612.91;10453889;28;20499;-67
2023/09/09 06:41:45;;;;;;;861.28;800.20;;;;;;;24.01;100.00;101617.38;10454120;28;20373;-67
2023/09/09 06:46:45;;;;;;;723.90;673.72;;;;;;;24.68;100.00;101623.97;10452563;28;20036;-67
2023/09/09 06:51:46;;;;;;;611.42;571.28;;;;;;;25.27;100.00;101616.00;10453733;28;20068;-67
2023/09/09 06:56:47;;;;;;;510.65;478.10;;;;;;;25.73;100.00;101623.38;10460025;28;20021;-67
2023/09/09 07:01:47;;;;;;;407.85;381.73;;;;;;;25.96;100.00;101619.16;10443882;28;20103;-67
2023/09/09 07:06:48;;;;;;;328.05;307.20;;;;;;;26.31;100.00;101620.13;10461894;28;20055;-67
2023/09/09 07:11:48;;;;;;;196.35;182.25;;;;;;;26.74;100.00;101628.75;10444587;28;20036;-67
2023/09/09 07:16:49;;;;;;;150.73;137.82;;;;;;;26.88;100.00;101629.78;10443558;28;20025;-68
2023/09/09 07:21:49;;;;;;;147.07;134.98;;;;;;;26.99;100.00;101631.34;10461945;28;20476;-67
2023/09/09 07:26:50;;;;;;;150.05;139.02;;;;;;;27.45;100.00;101638.47;10459001;28;20021;-67
2023/09/09 07:31:50;;;;;;;180.70;168.57;;;;;;;27.72;100.00;101633.16;10460575;28;20483;-66
2023/09/09 07:36:50;;;;;;;200.40;187.88;;;;;;;28.14;100.00;101644.66;10458680;28;20032;-66
2023/09/09 07:43:23;;;;;;;237.70;225.02;;;;;;;28.70;100.00;101646.72;10596229;27;20379;-67
2023/09/09 07:48:24;;;;;;;304.20;288.75;;;;;;;29.24;100.00;101638.91;10428943;28;20503;-65
2023/09/09 07:53:25;;;;;;;301.58;286.45;;;;;;;29.34;100.00;101650.69;10509924;28;20368;-67
2023/09/09 07:58:25;;;;;;;363.77;346.40;;;;;;;29.76;100.00;101651.63;10492661;28;20032;-67
2023/09/09 08:03:25;;;;;;;259.15;245.48;;;;;;;30.49;99.11;101635.03;10509769;28;20496;-65
2023/09/09 08:08:26;;;;;;;217.75;207.02;;;;;;;30.91;98.00;101636.56;10528066;28;20072;-67
2023/09/09 08:13:26;;;;;;;244.23;231.32;;;;;;;31.24;97.72;101639.09;10509072;28;20059;-67
2023/09/09 08:18:27;;;;;;;209.73;199.30;;;;;;;31.45;98.63;101647.78;10510256;28;20123;-67
2023/09/09 08:23:27;;;;;;;210.95;200.50;;;;;;;32.28;98.22;101649.94;10493834;28;20135;-67
2023/09/09 08:28:28;;;;;;;246.27;234.15;;;;;;;32.72;97.72;101654.47;10492693;28;20059;-67
2023/09/09 08:33:28;;;;;;;221.63;211.07;;;;;;;33.17;97.50;101650.50;10508961;28;20032;-67
2023/09/09 08:38:30;;;;;;;305.90;291.90;;;;;;;33.52;94.02;101656.88;10526449;28;20036;-67
2023/09/09 08:43:41;;;;;;;383.90;366.40;;;;;;;33.66;86.37;101665.91;10526253;28;20047;-67
2023/09/09 08:48:42;;;;;;;403.30;385.15;;;;;;;33.64;86.36;101659.00;10491618;28;20048;-67
2023/09/09 08:53:43;;;;;;;433.70;413.67;;;;;;;33.93;86.30;101661.00;10485701;28;20032;-67
2023/09/09 08:58:44;;;;;;;439.73;419.48;;;;;;;34.29;84.70;101666.13;10480213;28;20055;-67
2023/09/09 09:03:44;;;;;;;482.20;458.95;;;;;;;34.53;81.29;101659.88;10497947;28;20037;-67
2023/09/09 09:08:45;;;;;;;487.88;464.60;;;;;;;34.24;74.34;101666.31;10463199;28;20074;-67
2023/09/09 09:13:47;;;;;;;506.67;482.45;;;;;;;34.23;61.55;101681.53;10479655;28;20146;-65
2023/09/09 09:18:47;;;;;;;512.55;487.55;;;;;;;34.48;62.19;101665.66;10479257;28;20028;-66
2023/09/09 09:23:48;;;;;;;547.08;519.53;;;;;;;34.98;62.40;101675.22;10497393;28;20039;-68
2023/09/09 09:28:48;;;;;;;548.47;520.90;;;;;;;35.32;60.45;101669.28;10479041;28;20033;-67
2023/09/09 09:33:56;;;;;;;534.65;508.23;;;;;;;35.19;57.79;101670.38;10497413;28;20416;-65
2023/09/09 09:38:56;;;;;;;480.25;456.60;;;;;;;35.30;56.72;101682.06;10478150;28;20155;-65
2023/09/09 09:43:57;;;;;;;462.23;440.70;;;;;;;34.80;53.00;101666.91;10429013;28;20053;-66
2023/09/09 09:49:01;;;;;;;471.33;449.10;;;;;;;34.31;48.06;101669.41;10462189;28;20032;-64
2023/09/09 09:54:01;;;;;;;531.42;504.38;;;;;;;34.21;46.55;101675.44;10462960;28;20123;-64
2023/09/09 09:59:02;;;;;;;533.20;506.23;;;;;;;33.79;45.05;101670.50;10495669;28;20544;-65
2023/09/09 10:04:05;;;;;;;472.92;450.52;;;;;;;34.19;48.37;101667.31;10477126;28;20029;-65
2023/09/09 10:09:30;;;;;;;487.33;464.05;;;;;;;34.94;48.82;101659.03;10494760;28;20425;-65
2023/09/09 10:14:30;;;;;;;485.02;461.38;;;;;;;34.61;46.46;101664.59;10494751;28;20029;-64
2023/09/09 10:19:31;;;;;;;486.17;462.60;;;;;;;34.32;46.39;101664.63;10476164;28;20028;-66
2023/09/09 10:24:35;;;;;;;490.67;466.05;;;;;;;34.89;47.62;101673.28;10477423;28;20047;-64
2023/09/09 10:29:35;;;;;;;574.65;544.35;;;;;;;34.96;46.83;101664.28;10476870;28;20036;-63
2023/09/09 10:34:37;;;;;;;474.00;451.48;;;;;;;35.58;47.56;101652.09;10459144;28;20056;-65
2023/09/09 10:39:38;;;;;;;521.65;495.52;;;;;;;35.22;44.41;101651.97;10459159;28;20397;-65
2023/09/09 10:44:39;;;;;;;542.00;514.53;;;;;;;35.23;45.72;101654.47;10459008;28;20468;-64
2023/09/09 10:49:39;;;;;;;710.00;667.72;;;;;;;34.78;41.57;101648.72;10493722;28;20043;-65
2023/09/09 10:54:40;;;;;;;675.95;636.85;;;;;;;34.69;44.66;101648.81;10493813;28;20082;-65
2023/09/09 10:59:40;;;;;;;606.28;572.90;;;;;;;34.98;43.95;101644.25;10493800;28;20044;-65
2023/09/09 11:04:41;;;;;;;754.22;707.38;;;;;;;35.29;41.75;101653.06;10475391;28;20548;-64
2023/09/09 11:09:51;;;;;;;716.15;673.17;;;;;;;35.21;42.27;101645.53;10494497;28;20036;-66
2023/09/09 11:15:08;;;;;;;716.90;674.55;;;;;;;35.26;43.69;101642.50;10458290;28;20180;-65
2023/09/09 11:20:12;;;;;;;723.22;679.60;;;;;;;35.87;43.56;101644.59;10458547;28;20032;-65
2023/09/09 11:25:14;;;;;;;736.67;691.70;;;;;;;36.39;42.50;101646.69;10475065;28;20033;-64
2023/09/09 11:30:14;;;;;;;696.70;656.33;;;;;;;36.03;41.54;101636.28;10458496;28;20060;-64
2023/09/09 11:35:16;;;;;;;613.50;580.45;;;;;;;35.66;42.43;101630.59;10457564;28;20589;-65
2023/09/09 11:40:17;;;;;;;641.75;606.53;;;;;;;36.11;41.45;101632.50;10492215;28;20083;-65
2023/09/09 11:45:17;;;;;;;571.80;542.33;;;;;;;36.22;41.33;101624.41;10491859;28;20028;-65
2023/09/09 11:50:18;;;;;;;582.92;552.80;;;;;;;36.01;41.43;101621.69;10458463;28;20440;-64
2023/09/09 11:55:18;;;;;;;553.65;524.92;;;;;;;35.92;41.35;101618.97;10474096;28;20132;-65
2023/09/09 12:00:22;;;;;;;570.63;540.88;;;;;;;35.78;41.44;101621.34;10473987;28;20541;-67
2023/09/09 12:05:31;;;;;;;634.30;599.60;;;;;;;35.96;39.51;101619.94;10474201;28;20040;-63
2023/09/09 12:10:34;;;;;;;567.08;538.22;;;;;;;35.74;41.00;101621.22;10473863;28;20055;-66
2023/09/09 12:15:34;;;;;;;601.08;569.30;;;;;;;35.71;41.32;101616.31;10472501;28;20491;-64
2023/09/09 12:20:35;;;;;;;582.75;552.25;;;;;;;35.61;38.29;101619.56;10473431;28;20043;-66
2023/09/09 12:25:35;;;;;;;558.97;530.53;;;;;;;35.44;40.25;101609.31;10492397;28;20025;-64
2023/09/09 12:30:39;;;;;;;530.38;504.08;;;;;;;35.27;39.82;101612.34;10464750;28;20040;-64
2023/09/09 12:35:43;;;;;;;545.55;517.75;;;;;;;35.36;40.74;101613.06;10498696;28;20036;-64
2023/09/09 12:40:50;;;;;;;532.75;505.60;;;;;;;35.41;39.08;101622.09;10449928;28;20487;-66
2023/09/09 12:45:52;;;;;;;559.30;530.50;;;;;;;35.15;38.73;101615.94;10497692;28;20048;-65
2023/09/09 12:50:53;;;;;;;527.92;501.95;;;;;;;35.01;40.06;101610.59;10480329;28;20111;-67
2023/09/09 12:55:53;;;;;;;556.35;528.03;;;;;;;35.37;40.12;101611.88;10498702;28;20551;-65
2023/09/09 13:00:54;;;;;;;521.92;495.13;;;;;;;35.55;39.57;101610.53;10497364;28;20039;-66
2023/09/09 13:05:54;;;;;;;545.90;517.65;;;;;;;35.35;40.21;101617.03;10492767;28;20115;-65
2023/09/09 13:10:55;;;;;;;540.60;513.65;;;;;;;35.81;40.59;101610.19;10478905;28;20029;-65
2023/09/09 13:15:55;;;;;;;530.20;504.00;;;;;;;35.82;40.56;101608.19;10448247;28;20048;-65
2023/09/09 13:20:55;;;;;;;541.50;513.17;;;;;;;35.99;40.88;101604.28;10456145;28;20357;-64
2023/09/09 13:25:56;;;;;;;474.60;450.93;;;;;;;35.90;39.70;101609.22;10484599;28;20107;-64
2023/09/09 13:30:56;;;;;;;500.15;476.52;;;;;;;35.50;38.57;101601.47;10497877;28;20273;-64
2023/09/09 13:35:57;;;;;;;579.55;548.72;;;;;;;34.84;38.55;101591.88;10497668;28;20037;-65
2023/09/09 13:40:58;;;;;;;484.85;461.92;;;;;;;34.79;40.98;101578.03;10496155;28;20219;-63
2023/09/09 13:45:58;;;;;;;475.50;453.27;;;;;;;34.84;40.41;101579.81;10494958;28;20040;-65
2023/09/09 13:50:59;;;;;;;481.52;458.92;;;;;;;34.67;39.28;101580.81;10495784;28;20036;-64
2023/09/09 13:55:59;;;;;;;467.17;445.25;;;;;;;34.01;40.34;101585.13;10495088;28;20036;-64
2023/09/09 14:01:00;;;;;;;472.48;449.58;;;;;;;33.94;41.09;101584.78;10495121;28;20043;-63
2023/09/09 14:06:00;;;;;;;470.58;449.02;;;;;;;33.66;40.52;101586.44;10477170;28;20117;-65
2023/09/09 14:11:00;;;;;;;483.10;459.42;;;;;;;33.88;40.36;101577.72;10494806;28;20040;-65
2023/09/09 14:16:01;;;;;;;493.75;469.67;;;;;;;33.84;41.58;101582.38;10475534;28;20020;-69
2023/09/09 14:21:02;;;;;;;536.88;509.98;;;;;;;33.82;41.79;101581.88;10494199;28;20036;-66
2023/09/09 14:26:03;;;;;;;504.58;480.40;;;;;;;33.58;42.08;101578.88;10459898;28;20071;-66
2023/09/09 14:31:03;;;;;;;517.33;491.80;;;;;;;33.81;42.74;101566.19;10460058;28;20037;-67
2023/09/09 14:36:04;;;;;;;521.08;495.60;;;;;;;33.38;42.58;101570.03;10476017;28;20028;-65
2023/09/09 14:41:04;;;;;;;506.10;481.65;;;;;;;33.07;43.02;101573.09;10475282;28;20509;-66
2023/09/09 14:46:05;;;;;;;520.88;495.02;;;;;;;33.00;43.37;101568.00;10457634;28;20078;-67
2023/09/09 14:51:05;;;;;;;586.67;555.13;;;;;;;32.50;43.38;101574.13;10492607;28;20032;-66
2023/09/09 14:56:06;;;;;;;492.52;468.85;;;;;;;31.61;44.62;101569.81;10438954;28;20056;-67
2023/09/09 15:01:06;;;;;;;521.70;496.27;;;;;;;31.16;45.33;101565.13;10474823;28;20444;-66
2023/09/09 15:06:07;;;;;;;653.40;617.20;;;;;;;30.77;45.89;101557.50;10493316;28;20046;-67
2023/09/09 15:11:07;;;;;;;603.42;570.08;;;;;;;30.37;48.05;101562.09;10475373;28;20131;-66
2023/09/09 15:16:08;;;;;;;461.70;439.75;;;;;;;29.99;49.72;101565.97;10491598;28;20036;-67
2023/09/09 15:21:09;;;;;;;358.70;343.48;;;;;;;29.98;49.21;101566.28;10474202;28;20075;-67
2023/09/09 15:26:09;;;;;;;293.40;281.27;;;;;;;29.92;49.83;101562.78;10474816;28;20051;-67
2023/09/09 15:31:10;;;;;;;355.60;339.55;;;;;;;29.81;50.22;101558.56;10474463;28;20119;-68
2023/09/09 15:36:10;;;;;;;384.65;368.02;;;;;;;29.59;50.76;101560.09;10441456;28;20437;-67
2023/09/09 15:41:11;;;;;;;411.30;393.23;;;;;;;29.55;50.78;101555.44;10491873;28;20061;-66
2023/09/09 15:46:12;;;;;;;389.88;371.52;;;;;;;29.26;53.53;101551.00;10473792;28;20431;-68
2023/09/09 15:51:12;;;;;;;362.73;347.13;;;;;;;29.15;53.75;101555.09;10441074;28;20031;-67
2023/09/09 15:56:13;;;;;;;330.23;316.25;;;;;;;29.15;53.54;101552.31;10492835;28;20036;-66
2023/09/09 16:01:13;;;;;;;390.10;372.95;;;;;;;29.09;54.90;101559.94;10476279;28;20119;-67
2023/09/09 16:06:14;;;;;;;391.77;373.05;;;;;;;28.95;55.64;101556.25;10482772;28;20388;-67
2023/09/09 16:11:14;;;;;;;380.45;363.95;;;;;;;28.83;56.54;101547.56;10466992;28;20033;-67
2023/09/09 16:16:15;;;;;;;371.23;355.17;;;;;;;28.86;55.68;101556.13;10481440;28;20111;-67
2023/09/09 16:21:15;;;;;;;339.95;325.48;;;;;;;28.82;55.70;101566.25;10481668;28;20028;-66
2023/09/09 16:26:15;;;;;;;253.77;243.32;;;;;;;28.70;57.49;101557.53;10448449;28;20412;-67
2023/09/09 16:31:16;;;;;;;214.02;204.52;;;;;;;28.69;56.59;101556.69;10499905;28;20059;-69
2023/09/09 16:36:16;;;;;;;226.70;217.20;;;;;;;28.53;58.34;101555.28;10480525;28;20074;-67
2023/09/09 16:41:17;;;;;;;276.48;263.00;;;;;;;28.42;59.67;101565.75;10498575;28;20358;-67
2023/09/09 16:46:17;;;;;;;321.52;308.10;;;;;;;28.38;58.78;101567.47;10480381;28;20530;-66
2023/09/09 16:51:17;;;;;;;281.38;268.88;;;;;;;28.28;59.81;101570.41;10498972;28;20033;-67
2023/09/09 16:56:18;;;;;;;242.50;232.35;;;;;;;28.19;60.29;101563.84;10498141;28;20434;-67
2023/09/09 17:01:18;;;;;;;256.55;245.80;;;;;;;28.09;61.30;101569.56;10498528;28;20032;-68
2023/09/09 17:06:19;;;;;;;281.95;269.60;;;;;;;27.94;63.42;101568.63;10463533;28;20041;-67
2023/09/09 17:11:19;;;;;;;411.38;390.67;;;;;;;27.84;63.81;101574.34;10479653;28;20089;-68
2023/09/09 17:16:20;;;;;;;217.98;208.38;;;;;;;27.74;63.01;101571.66;10497563;28;20041;-67
2023/09/09 17:21:20;;;;;;;213.18;203.15;;;;;;;27.60;65.16;101582.69;10496626;28;20115;-68
2023/09/09 17:26:20;;;;;;;229.05;219.68;;;;;;;27.48;65.04;101583.09;10478780;28;20142;-66
2023/09/09 17:31:21;;;;;;;252.63;242.05;;;;;;;27.34;66.27;101580.16;10462588;28;20067;-66
2023/09/09 17:36:21;;;;;;;246.07;234.90;;;;;;;27.19;67.04;101576.72;10496493;28;20043;-68
2023/09/09 17:41:22;;;;;;;237.45;227.32;;;;;;;27.06;68.04;101575.44;10461446;28;20059;-67
2023/09/09 17:46:23;;;;;;;215.77;206.63;;;;;;;26.89;69.31;101576.66;10477594;28;20070;-67
2023/09/09 17:51:27;;;;;;;203.68;194.93;;;;;;;26.75;68.75;101572.91;10478755;28;20057;-67
2023/09/09 17:56:27;;;;;;;198.57;190.23;;;;;;;26.63;69.19;101578.81;10460997;28;20025;-68
2023/09/09 18:01:27;;;;;;;177.25;169.68;;;;;;;26.51;68.73;101583.91;10495843;28;20028;-67
2023/09/09 18:06:28;;;;;;;167.55;160.48;;;;;;;26.35;68.81;101583.13;10495418;28;20376;-67
2023/09/09 18:11:28;;;;;;;164.20;155.80;;;;;;;26.21;69.64;101588.50;10477318;28;20108;-67
2023/09/09 18:16:30;;;;;;;164.98;158.00;;;;;;;26.06;70.77;101585.81;10475747;28;20119;-67
2023/09/09 18:21:30;;;;;;;172.05;164.85;;;;;;;25.96;71.40;101585.84;10477093;28;20029;-69
2023/09/09 18:26:30;;;;;;;164.63;157.52;;;;;;;25.81;71.63;101583.16;10475698;28;20044;-68
2023/09/09 18:31:31;;;;;;;203.60;194.35;;;;;;;25.71;72.21;101593.13;10495175;28;20044;-68
2023/09/09 18:36:31;;;;;;;227.30;217.45;;;;;;;25.57;72.32;101594.03;10443696;28;20455;-67
2023/09/09 18:41:32;;;;;;;283.05;270.05;;;;;;;25.45;70.89;101599.88;10443410;28;20045;-67
2023/09/09 18:46:32;;;;;;;321.60;307.95;;;;;;;25.29;70.03;101599.06;10461276;28;20072;-68
2023/09/09 18:51:33;;;;;;;357.60;341.83;;;;;;;25.13;70.06;101611.28;10476043;28;20060;-68
2023/09/09 18:56:33;;;;;;;395.58;377.77;;;;;;;24.96;69.96;101611.53;10493210;28;20036;-67
2023/09/09 19:01:34;;;;;;;349.00;333.55;;;;;;;24.82;70.24;101614.88;10493235;28;20111;-69
2023/09/09 19:06:35;;;;;;;248.23;237.57;;;;;;;24.68;71.22;101623.97;10475435;28;20059;-67
2023/09/09 19:11:35;;;;;;;140.95;134.38;;;;;;;24.53;71.64;101616.47;10475629;28;20392;-68
2023/09/09 19:16:35;;;;;;;113.97;108.28;;;;;;;24.47;71.70;101631.41;10492553;28;20036;-70
2023/09/09 19:21:36;;;;;;;102.63;97.95;;;;;;;24.33;72.91;101633.81;10493168;28;20125;-67
2023/09/09 19:26:37;;;;;;;99.93;94.28;;;;;;;24.20;73.82;101635.16;10492300;28;20119;-68
2023/09/09 19:31:37;;;;;;;89.45;85.10;;;;;;;24.16;74.17;101625.75;10492504;28;20127;-66
2023/09/09 19:36:43;;;;;;;84.55;80.10;;;;;;;24.09;75.37;101634.31;10457582;28;20064;-68
2023/09/09 19:41:44;;;;;;;90.50;85.85;;;;;;;24.06;77.22;101631.25;10457451;28;20067;-68
2023/09/09 19:46:45;;;;;;;92.60;87.82;;;;;;;23.96;77.50;101637.53;10474446;28;20075;-67
2023/09/09 19:51:47;;;;;;;99.07;93.97;;;;;;;23.90;77.80;101633.13;10474581;28;20035;-66
2023/09/09 19:56:47;;;;;;;118.18;111.22;;;;;;;23.86;78.68;101629.19;10492461;28;20043;-67
2023/09/09 20:01:48;;;;;;;132.25;125.93;;;;;;;23.86;82.85;101645.78;10441196;28;20033;-68
2023/09/09 20:06:48;;;;;;;140.13;133.52;;;;;;;23.88;84.96;101636.13;10474408;28;20037;-68
2023/09/09 20:11:48;;;;;;;159.15;151.52;;;;;;;23.86;84.18;101643.84;10490932;28;20477;-67
2023/09/09 20:16:49;;;;;;;189.80;180.95;;;;;;;23.83;87.16;101649.94;10491879;28;20041;-67
2023/09/09 20:21:49;;;;;;;187.25;178.07;;;;;;;23.82;86.37;101647.44;10474114;28;20035;-67
2023/09/09 20:26:50;;;;;;;313.42;297.77;;;;;;;23.76;84.49;101654.88;10440670;28;20123;-68
2023/09/09 20:31:52;;;;;;;192.70;183.63;;;;;;;23.71;83.96;101657.63;10473998;28;20453;-67
2023/09/09 20:36:55;;;;;;;152.35;145.15;;;;;;;23.64;84.15;101652.31;10491949;28;20044;-67
2023/09/09 20:41:58;;;;;;;159.32;151.02;;;;;;;23.55;85.33;101653.91;10490153;28;20059;-67
2023/09/09 20:47:00;;;;;;;164.05;156.20;;;;;;;23.47;88.57;101651.63;10490814;28;20028;-67
2023/09/09 20:52:00;;;;;;;158.63;151.30;;;;;;;23.47;89.32;101650.78;10498170;28;20068;-68
2023/09/09 20:57:01;;;;;;;183.50;174.75;;;;;;;23.38;86.91;101650.44;10496871;28;20068;-67
2023/09/09 21:02:02;;;;;;;376.83;352.77;;;;;;;23.25;86.27;101646.19;10478960;28;20071;-67
2023/09/09 21:07:04;;;;;;;802.13;750.30;;;;;;;23.15;87.12;101654.41;10496779;28;20036;-67
2023/09/09 21:12:05;;;;;;;827.92;773.90;;;;;;;23.07;87.44;101658.50;10498673;28;20042;-66
2023/09/09 21:17:06;;;;;;;808.35;755.40;;;;;;;22.98;88.30;101651.78;10479464;28;20055;-67
2023/09/09 21:22:06;;;;;;;884.22;824.72;;;;;;;22.90;89.24;101657.75;10497536;28;20036;-67
2023/09/09 21:27:06;;;;;;;847.20;791.50;;;;;;;22.86;90.09;101662.13;10480237;28;20028;-66
2023/09/09 21:32:07;;;;;;;844.70;789.25;;;;;;;22.81;92.92;101657.38;10478946;28;20614;-67
2023/09/09 21:37:07;;;;;;;847.60;792.35;;;;;;;22.80;91.61;101663.16;10462409;28;20040;-66
2023/09/09 21:42:08;;;;;;;833.20;778.85;;;;;;;22.74;91.78;101654.81;10496777;28;20451;-68
2023/09/09 21:47:08;;;;;;;860.20;803.28;;;;;;;22.70;91.65;101661.97;10446439;28;20344;-67
2023/09/09 21:52:09;;;;;;;855.83;798.88;;;;;;;22.64;91.46;101654.72;10500568;28;20384;-67
2023/09/09 21:57:09;;;;;;;845.20;789.92;;;;;;;22.58;91.54;101650.25;10462110;28;20121;-67